createdAt,value
2022-09-26T00:01:19.844Z,2.85
2022-09-26T00:05:01.556Z,3.35
2022-09-26T00:08:43.508Z,4.72
2022-09-26T00:12:25.426Z,4.63
2022-09-26T00:16:07.322Z,6.18
2022-09-26T00:19:49.283Z,2.90
2022-09-26T00:23:30.970Z,2.92
2022-09-26T00:27:12.700Z,4.82
2022-09-26T00:30:54.817Z,6.10
2022-09-26T00:34:36.732Z,2.10
2022-09-26T00:38:18.521Z,2.38
2022-09-26T00:42:01.335Z,3.10
2022-09-26T00:45:43.063Z,4.77
2022-09-26T00:49:28.834Z,3.75
2022-09-26T00:53:16.999Z,3.88
2022-09-26T00:57:04.124Z,5.97
2022-09-26T01:00:47.023Z,7.68
2022-09-26T01:04:29.574Z,6.20
2022-09-26T01:08:11.769Z,3.80
2022-09-26T01:11:53.732Z,5.22
2022-09-26T01:15:36.710Z,4.80
2022-09-26T01:19:46.232Z,7.00
2022-09-26T01:23:30.967Z,5.30
2022-09-26T01:27:21.879Z,2.97
2022-09-26T01:31:12.062Z,4.43
2022-09-26T01:35:24.802Z,3.58
2022-09-26T01:39:27.464Z,4.85
2022-09-26T01:43:26.024Z,4.45
2022-09-26T01:47:22.447Z,5.10
2022-09-26T01:51:41.243Z,3.47
2022-09-26T01:55:29.803Z,6.63
2022-09-26T01:59:32.514Z,6.93
2022-09-26T02:03:22.559Z,4.32
2022-09-26T02:07:18.562Z,6.38
2022-09-26T02:11:04.699Z,3.30
2022-09-26T02:14:46.915Z,2.33
2022-09-26T02:18:37.638Z,3.67
2022-09-26T02:22:19.542Z,6.82
2022-09-26T02:26:01.306Z,4.45
2022-09-26T02:29:43.785Z,2.78
2022-09-26T02:33:25.484Z,3.17
2022-09-26T02:37:07.185Z,4.60
2022-09-26T02:41:13.571Z,3.05
2022-09-26T02:45:21.674Z,3.33
2022-09-26T02:49:34.188Z,3.78
2022-09-26T02:53:38.896Z,4.35
2022-09-26T02:57:46.988Z,4.68
2022-09-26T03:01:40.166Z,5.63
2022-09-26T03:05:23.632Z,3.45
2022-09-26T03:09:05.446Z,4.35
2022-09-26T03:12:47.225Z,2.50
2022-09-26T03:16:30.670Z,3.88
2022-09-26T03:20:16.854Z,3.67
2022-09-26T03:23:59.010Z,4.25
2022-09-26T03:27:43.640Z,4.53
2022-09-26T03:31:25.545Z,1.70
2022-09-26T03:35:08.416Z,1.40
2022-09-26T03:38:50.146Z,3.20
2022-09-26T03:42:34.850Z,1.85
2022-09-26T03:46:16.594Z,1.98
2022-09-26T03:49:58.455Z,2.38
2022-09-26T03:53:43.080Z,1.63
2022-09-26T03:57:24.860Z,2.20
2022-09-26T04:01:08.487Z,1.52
2022-09-26T04:08:31.907Z,0.43
2022-09-26T04:12:15.168Z,1.33
2022-09-26T04:15:57.726Z,1.05
2022-09-26T04:19:40.395Z,0.80
2022-09-26T04:23:22.071Z,1.10
2022-09-26T04:27:03.847Z,0.85
2022-09-26T04:30:45.624Z,1.42
2022-09-26T04:34:27.729Z,3.10
2022-09-26T04:38:09.504Z,0.50
2022-09-26T04:41:52.440Z,0.30
2022-09-26T04:45:34.179Z,0.63
2022-09-26T04:49:16.149Z,0.82
2022-09-26T04:53:00.927Z,0.68
2022-09-26T04:56:42.728Z,0.68
2022-09-26T05:00:24.618Z,0.32
2022-09-26T05:04:07.238Z,1.35
2022-09-26T05:07:48.916Z,3.22
2022-09-26T05:11:32.954Z,0.80
2022-09-26T05:15:14.662Z,3.30
2022-09-26T05:18:56.960Z,1.45
2022-09-26T05:22:38.799Z,8.75
2022-09-26T05:26:23.519Z,2.03
2022-09-26T05:30:05.888Z,2.67
2022-09-26T05:33:47.633Z,2.80
2022-09-26T05:37:29.335Z,2.95
2022-09-26T05:41:12.542Z,1.20
2022-09-26T05:44:54.206Z,0.73
2022-09-26T05:48:36.915Z,3.70
2022-09-26T05:52:18.850Z,2.65
2022-09-26T05:56:00.671Z,5.35
2022-09-26T05:59:43.583Z,5.45
2022-09-26T06:03:25.262Z,4.37
2022-09-26T06:07:06.957Z,6.30
2022-09-26T06:10:48.724Z,8.80
2022-09-26T06:14:32.004Z,6.80
2022-09-26T06:18:14.051Z,11.90
2022-09-26T06:21:55.926Z,9.80
2022-09-26T06:25:37.611Z,6.63
2022-09-26T06:29:19.989Z,7.43
2022-09-26T06:33:01.961Z,6.95
2022-09-26T06:36:44.131Z,8.27
2022-09-26T06:40:25.938Z,11.88
2022-09-26T06:44:07.917Z,8.35
2022-09-26T06:47:49.640Z,10.93
2022-09-26T06:51:32.496Z,7.80
2022-09-26T06:55:15.076Z,11.47
2022-09-26T06:58:57.495Z,6.65
2022-09-26T07:02:39.485Z,8.27
2022-09-26T07:06:21.390Z,9.45
2022-09-26T07:10:03.118Z,7.40
2022-09-26T07:13:45.447Z,8.45
2022-09-26T07:17:27.130Z,9.75
2022-09-26T07:21:09.225Z,15.07
2022-09-26T07:24:50.932Z,13.77
2022-09-26T07:28:32.666Z,8.55
2022-09-26T07:32:14.575Z,6.82
2022-09-26T07:36:00.721Z,13.60
2022-09-26T07:39:45.240Z,11.60
2022-09-26T07:43:53.666Z,11.52
2022-09-26T07:47:51.466Z,19.52
2022-09-26T07:51:33.504Z,13.73
2022-09-26T07:55:17.536Z,11.52
2022-09-26T07:59:00.079Z,11.27
2022-09-26T08:02:46.626Z,12.48
2022-09-26T08:06:29.805Z,9.93
2022-09-26T08:10:19.181Z,12.95
2022-09-26T08:14:01.764Z,14.57
2022-09-26T08:17:43.589Z,11.43
2022-09-26T08:21:25.502Z,11.73
2022-09-26T08:25:08.011Z,12.05
2022-09-26T08:28:49.727Z,14.77
2022-09-26T08:32:32.298Z,13.98
2022-09-26T08:36:15.417Z,12.70
2022-09-26T08:39:57.954Z,18.15
2022-09-26T08:43:41.495Z,15.52
2022-09-26T08:47:34.793Z,14.90
2022-09-26T08:51:23.308Z,15.27
2022-09-26T08:55:14.595Z,19.52
2022-09-26T08:58:56.357Z,24.35
2022-09-26T09:02:41.930Z,18.15
2022-09-26T09:06:23.706Z,24.73
2022-09-26T09:10:07.676Z,24.30
2022-09-26T09:14:11.802Z,22.08
2022-09-26T09:18:15.067Z,21.15
2022-09-26T09:22:25.822Z,20.53
2022-09-26T09:30:33.688Z,18.95
2022-09-26T09:34:26.681Z,20.25
2022-09-26T09:38:15.078Z,19.00
2022-09-26T09:41:58.474Z,24.65
2022-09-26T09:45:51.163Z,18.77
2022-09-26T09:54:22.495Z,18.85
2022-09-26T09:58:10.793Z,16.67
2022-09-26T10:02:14.653Z,17.85
2022-09-26T10:06:00.726Z,15.95
2022-09-26T10:09:43.881Z,18.00
2022-09-26T10:13:25.864Z,17.63
2022-09-26T10:17:10.537Z,14.43
2022-09-26T10:21:08.935Z,16.40
2022-09-26T10:24:50.817Z,19.30
2022-09-26T10:28:52.817Z,18.08
2022-09-26T10:32:45.630Z,18.90
2022-09-26T10:36:34.887Z,13.65
2022-09-26T10:40:44.773Z,12.57
2022-09-26T10:44:39.558Z,10.07
2022-09-26T10:48:24.160Z,13.15
2022-09-26T10:52:19.140Z,13.10
2022-09-26T10:56:04.826Z,11.70
2022-09-26T10:59:47.143Z,10.68
2022-09-26T11:03:45.086Z,10.93
2022-09-26T11:07:29.154Z,12.07
2022-09-26T11:11:15.179Z,8.95
2022-09-26T11:15:01.267Z,8.13
2022-09-26T11:18:45.610Z,8.10
2022-09-26T11:22:44.932Z,9.68
2022-09-26T11:26:56.346Z,7.28
2022-09-26T11:30:41.480Z,7.60
2022-09-26T11:34:26.689Z,5.18
2022-09-26T11:38:26.746Z,6.68
2022-09-26T11:42:33.269Z,4.72
2022-09-26T11:46:27.430Z,5.68
2022-09-26T11:50:23.597Z,6.47
2022-09-26T11:54:33.437Z,8.20
2022-09-26T11:58:27.753Z,7.22
2022-09-26T12:02:32.654Z,3.20
2022-09-26T12:06:33.594Z,8.52
2022-09-26T12:10:26.763Z,6.38
2022-09-26T12:14:36.092Z,6.50
2022-09-26T12:18:32.826Z,7.20
2022-09-26T12:22:30.016Z,6.72
2022-09-26T12:26:34.625Z,7.25
2022-09-26T12:30:21.533Z,4.72
2022-09-26T12:34:12.276Z,3.13
2022-09-26T12:38:20.614Z,5.47
2022-09-26T12:42:31.158Z,5.38
2022-09-26T12:46:25.037Z,5.65
2022-09-26T12:50:44.502Z,4.43
2022-09-26T12:54:29.005Z,5.82
2022-09-26T12:58:40.769Z,4.95
2022-09-26T13:02:38.710Z,4.57
2022-09-26T13:07:02.165Z,2.78
2022-09-26T13:10:52.102Z,7.22
2022-09-26T13:15:05.019Z,5.90
2022-09-26T13:18:56.538Z,7.30
2022-09-26T13:23:02.182Z,8.23
2022-09-26T13:26:47.233Z,4.57
2022-09-26T13:30:33.382Z,4.75
2022-09-26T13:34:27.564Z,7.32
2022-09-26T13:38:28.521Z,5.88
2022-09-26T13:42:18.522Z,4.82
2022-09-26T13:46:28.202Z,5.45
2022-09-26T13:50:25.407Z,5.80
2022-09-26T13:54:26.353Z,7.95
2022-09-26T13:58:21.608Z,6.43
2022-09-26T14:02:28.359Z,4.75
2022-09-26T14:06:18.470Z,4.70
2022-09-26T14:10:07.452Z,5.45
2022-09-26T14:13:49.361Z,6.72
2022-09-26T14:17:43.307Z,5.10
2022-09-26T14:21:33.386Z,7.97
2022-09-26T14:25:46.217Z,6.38
2022-09-26T14:29:27.888Z,4.78
2022-09-26T14:33:11.092Z,2.83
2022-09-26T14:36:53.629Z,5.55
2022-09-26T14:40:37.326Z,3.95
2022-09-26T14:44:19.681Z,6.47
2022-09-26T14:48:13.605Z,4.68
2022-09-26T14:52:00.614Z,6.22
2022-09-26T14:56:02.198Z,4.00
2022-09-26T14:59:44.402Z,5.07
2022-09-26T15:03:26.140Z,3.15
2022-09-26T15:07:35.243Z,4.43
2022-09-26T15:11:47.897Z,2.80
2022-09-26T15:15:31.945Z,5.18
2022-09-26T15:19:25.457Z,6.05
2022-09-26T15:23:25.959Z,4.00
2022-09-26T15:27:19.247Z,4.15
2022-09-26T15:31:36.051Z,3.63
2022-09-26T15:35:17.974Z,13.75
2022-09-26T15:39:00.634Z,3.92
2022-09-26T15:43:07.211Z,3.87
2022-09-26T15:46:49.719Z,4.88
2022-09-26T15:50:37.117Z,4.50
2022-09-26T15:54:29.871Z,4.28
2022-09-26T15:58:14.591Z,5.63
2022-09-26T16:01:56.505Z,7.13
2022-09-26T16:05:38.230Z,6.65
2022-09-26T16:09:21.533Z,7.43
2022-09-26T16:13:03.479Z,5.78
2022-09-26T16:16:45.147Z,7.35
2022-09-26T16:20:30.926Z,5.22
2022-09-26T16:24:34.132Z,5.30
2022-09-26T16:28:17.683Z,3.40
2022-09-26T16:31:59.708Z,2.03
2022-09-26T16:35:45.809Z,5.95
2022-09-26T16:39:28.863Z,3.45
2022-09-26T16:43:14.624Z,5.32
2022-09-26T16:46:58.838Z,2.17
2022-09-26T16:50:40.674Z,4.22
2022-09-26T16:54:22.363Z,3.05
2022-09-26T16:58:04.679Z,4.70
2022-09-26T17:01:56.393Z,5.65
2022-09-26T17:05:38.280Z,3.35
2022-09-26T17:09:28.087Z,4.35
2022-09-26T17:13:16.887Z,3.47
2022-09-26T17:16:59.134Z,3.35
2022-09-26T17:20:44.155Z,3.08
2022-09-26T17:24:26.591Z,6.60
2022-09-26T17:28:11.643Z,4.85
2022-09-26T17:31:54.378Z,2.55
2022-09-26T17:35:36.072Z,4.37
2022-09-26T17:39:25.374Z,3.88
2022-09-26T17:43:07.993Z,5.78
2022-09-26T17:46:51.357Z,5.82
2022-09-26T17:50:33.291Z,7.05
2022-09-26T17:54:16.747Z,3.38
2022-09-26T17:57:59.681Z,5.05
2022-09-26T18:01:41.627Z,7.97
2022-09-26T18:05:31.111Z,5.85
2022-09-26T18:09:15.685Z,4.60
2022-09-26T18:13:02.754Z,7.32
2022-09-26T18:16:46.483Z,6.10
2022-09-26T18:24:19.889Z,5.30
2022-09-26T18:28:04.770Z,9.13
2022-09-26T18:31:46.894Z,5.43
2022-09-26T18:35:29.208Z,5.13
2022-09-26T18:39:10.883Z,4.78
2022-09-26T18:42:54.713Z,5.53
2022-09-26T18:46:37.702Z,7.85
2022-09-26T18:50:45.982Z,9.48
2022-09-26T18:54:34.059Z,8.75
2022-09-26T18:58:29.375Z,6.53
2022-09-26T19:02:23.062Z,8.35
2022-09-26T19:06:06.152Z,7.75
2022-09-26T19:09:47.835Z,5.15
2022-09-26T19:13:30.750Z,7.65
2022-09-26T19:17:12.914Z,5.40
2022-09-26T19:20:54.802Z,10.80
2022-09-26T19:24:48.777Z,8.95
2022-09-26T19:32:19.318Z,10.43
2022-09-26T19:36:01.183Z,8.10
2022-09-26T19:39:44.100Z,8.85
2022-09-26T19:43:25.984Z,7.80
2022-09-26T19:47:19.861Z,9.70
2022-09-26T19:54:44.627Z,10.23
2022-09-26T19:58:27.780Z,13.30
2022-09-26T20:02:17.937Z,7.63
2022-09-26T20:05:59.662Z,8.68
2022-09-26T20:09:41.515Z,11.77
2022-09-26T20:13:23.346Z,11.48
2022-09-26T20:17:19.115Z,10.25
2022-09-26T20:21:00.978Z,12.45
2022-09-26T20:24:44.108Z,10.18
2022-09-26T20:28:25.774Z,10.90
2022-09-26T20:32:11.147Z,9.07
2022-09-26T20:36:02.897Z,7.28
2022-09-26T20:39:47.494Z,7.63
2022-09-26T20:43:32.327Z,9.45
2022-09-26T20:47:17.537Z,9.20
2022-09-26T20:50:59.375Z,9.65
2022-09-26T20:54:42.015Z,10.35
2022-09-26T20:58:23.847Z,7.78
2022-09-26T21:02:23.054Z,6.63
2022-09-26T21:06:04.903Z,6.90
2022-09-26T21:09:46.615Z,5.03
2022-09-26T21:13:28.302Z,5.45
2022-09-26T21:17:26.453Z,5.20
2022-09-26T21:21:09.692Z,2.80
2022-09-26T21:24:51.395Z,4.18
2022-09-26T21:28:33.059Z,5.38
2022-09-26T21:32:20.170Z,5.45
2022-09-26T21:36:01.989Z,4.65
2022-09-26T21:39:43.983Z,6.80
2022-09-26T21:43:27.185Z,6.00
2022-09-26T21:47:08.874Z,6.25
2022-09-26T21:50:57.705Z,5.28
2022-09-26T21:54:42.686Z,5.70
2022-09-26T21:58:26.691Z,3.97
2022-09-26T22:02:08.635Z,3.92
2022-09-26T22:05:50.373Z,4.07
2022-09-26T22:09:32.096Z,2.25
2022-09-26T22:13:13.763Z,4.85
2022-09-26T22:16:55.662Z,5.10
2022-09-26T22:20:37.601Z,5.22
2022-09-26T22:24:19.457Z,3.92
2022-09-26T22:28:01.483Z,4.85
2022-09-26T22:31:44.365Z,5.45
2022-09-26T22:35:26.074Z,5.53
2022-09-26T22:39:07.748Z,4.90
2022-09-26T22:42:50.963Z,5.82
2022-09-26T22:46:33.846Z,5.85
2022-09-26T22:50:15.770Z,2.27
2022-09-26T22:53:57.459Z,3.90
2022-09-26T22:57:39.389Z,3.83
2022-09-26T23:01:27.347Z,4.78
2022-09-26T23:05:09.326Z,3.10
2022-09-26T23:08:51.206Z,2.42
2022-09-26T23:12:32.956Z,4.28
2022-09-26T23:16:17.074Z,4.70
2022-09-26T23:19:59.286Z,6.32
2022-09-26T23:23:42.835Z,5.75
2022-09-26T23:27:26.209Z,5.93
2022-09-26T23:31:09.706Z,3.10
2022-09-26T23:34:51.507Z,4.22
2022-09-26T23:38:33.394Z,5.50
2022-09-26T23:42:15.302Z,6.25
2022-09-26T23:45:57.195Z,4.25
2022-09-26T23:49:39.203Z,5.53
2022-09-26T23:53:20.892Z,6.70
2022-09-26T23:57:02.573Z,5.57
